createdAt,value
2017-06-11T00:00:51.875Z,1020.41
2017-06-11T00:02:14.364Z,1020.42
2017-06-11T00:03:35.912Z,1020.36
2017-06-11T00:04:57.452Z,1020.37
2017-06-11T00:06:20.082Z,1020.36
2017-06-11T00:07:42.386Z,1020.39
2017-06-11T00:09:04.533Z,1020.41
2017-06-11T00:10:26.823Z,1020.39
2017-06-11T00:11:48.691Z,1020.36
2017-06-11T00:13:10.580Z,1020.38
2017-06-11T00:14:32.091Z,1020.36
2017-06-11T00:15:54.272Z,1020.38
2017-06-11T00:17:16.412Z,1020.41
2017-06-11T00:18:38.973Z,1020.37
2017-06-11T00:20:01.236Z,1020.35
2017-06-11T00:21:23.711Z,1020.34
2017-06-11T00:22:45.584Z,1020.35
2017-06-11T00:24:07.522Z,1020.31
2017-06-11T00:25:29.404Z,1020.33
2017-06-11T00:26:51.224Z,1020.33
2017-06-11T00:28:13.394Z,1020.31
2017-06-11T00:29:35.245Z,1020.29
2017-06-11T00:30:57.104Z,1020.22
2017-06-11T00:32:18.924Z,1020.24
2017-06-11T00:33:40.895Z,1020.23
2017-06-11T00:35:03.133Z,1020.21
2017-06-11T00:36:25.281Z,1020.21
2017-06-11T00:37:46.825Z,1020.22
2017-06-11T00:39:08.744Z,1020.22
2017-06-11T00:40:31.211Z,1020.18
2017-06-11T00:41:53.363Z,1020.18
2017-06-11T00:43:15.822Z,1020.19
2017-06-11T00:44:37.743Z,1020.16
2017-06-11T00:45:59.604Z,1020.09
2017-06-11T00:47:22.068Z,1020.1
2017-06-11T00:48:43.901Z,1020.07
2017-06-11T00:50:05.863Z,1020.11
2017-06-11T00:51:28.343Z,1020.13
2017-06-11T00:52:50.814Z,1020.12
2017-06-11T00:54:13.592Z,1020.08
2017-06-11T00:55:35.791Z,1020.03
2017-06-11T00:56:57.917Z,1020.02
2017-06-11T00:58:19.540Z,1020.04
2017-06-11T00:59:41.938Z,1020.04
2017-06-11T01:01:04.440Z,1019.94
2017-06-11T01:02:26.673Z,1019.98
2017-06-11T01:03:48.876Z,1019.96
2017-06-11T01:05:11.342Z,1019.96
2017-06-11T01:06:33.169Z,1019.97
2017-06-11T01:07:55.745Z,1019.99
2017-06-11T01:09:17.609Z,1020.01
2017-06-11T01:10:39.446Z,1020
2017-06-11T01:12:01.604Z,1019.96
2017-06-11T01:13:23.126Z,1019.97
2017-06-11T01:14:44.735Z,1019.94
2017-06-11T01:16:06.636Z,1019.99
2017-06-11T01:17:28.503Z,1019.96
2017-06-11T01:18:51.073Z,1019.92
2017-06-11T01:20:13.558Z,1019.93
2017-06-11T01:21:35.393Z,1019.94
2017-06-11T01:22:56.903Z,1019.93
2017-06-11T01:24:18.502Z,1019.94
2017-06-11T01:25:40.493Z,1019.95
2017-06-11T01:27:02.681Z,1019.94
2017-06-11T01:28:24.844Z,1019.9
2017-06-11T01:29:46.505Z,1019.93
2017-06-11T01:31:08.993Z,1019.94
2017-06-11T01:32:31.283Z,1019.93
2017-06-11T01:33:52.511Z,1019.89
2017-06-11T01:35:14.650Z,1019.89
2017-06-11T01:36:36.172Z,1019.87
2017-06-11T01:37:58.353Z,1019.9
2017-06-11T01:39:20.203Z,1019.87
2017-06-11T01:40:42.034Z,1019.84
2017-06-11T01:42:03.875Z,1019.82
2017-06-11T01:43:26.381Z,1019.79
2017-06-11T01:44:48.270Z,1019.83
2017-06-11T01:46:10.736Z,1019.81
2017-06-11T01:47:32.864Z,1019.83
2017-06-11T01:48:55.073Z,1019.78
2017-06-11T01:50:16.904Z,1019.79
2017-06-11T01:51:38.862Z,1019.78
2017-06-11T01:53:00.994Z,1019.7
2017-06-11T01:54:23.262Z,1019.7
2017-06-11T01:55:45.134Z,1019.75
2017-06-11T01:57:06.691Z,1019.68
2017-06-11T01:58:28.833Z,1019.71
2017-06-11T01:59:51.023Z,1019.72
2017-06-11T02:01:13.196Z,1019.71
2017-06-11T02:02:35.352Z,1019.72
2017-06-11T02:03:56.553Z,1019.75
2017-06-11T02:05:18.752Z,1019.72
2017-06-11T02:06:40.403Z,1019.7
2017-06-11T02:08:02.593Z,1019.7
2017-06-11T02:09:25.138Z,1019.69
2017-06-11T02:10:47.736Z,1019.7
2017-06-11T02:12:10.392Z,1019.7
2017-06-11T02:13:31.694Z,1019.66
2017-06-11T02:14:53.353Z,1019.66
2017-06-11T02:16:15.924Z,1019.64
2017-06-11T02:17:38.546Z,1019.65
2017-06-11T02:19:01.011Z,1019.62
2017-06-11T02:20:22.843Z,1019.61
2017-06-11T02:21:44.103Z,1019.61
2017-06-11T02:23:06.405Z,1019.56
2017-06-11T02:24:28.564Z,1019.64
2017-06-11T02:25:50.173Z,1019.63
2017-06-11T02:27:12.614Z,1019.59
2017-06-11T02:28:34.223Z,1019.59
2017-06-11T02:29:55.477Z,1019.63
2017-06-11T02:31:17.426Z,1019.62
2017-06-11T02:32:39.042Z,1019.59
2017-06-11T02:34:00.894Z,1019.58
2017-06-11T02:35:23.052Z,1019.53
2017-06-11T02:36:44.882Z,1019.52
2017-06-11T02:38:07.051Z,1019.5
2017-06-11T02:39:29.211Z,1019.53
2017-06-11T02:40:50.726Z,1019.52
2017-06-11T02:42:12.372Z,1019.52
2017-06-11T02:43:34.213Z,1019.54
2017-06-11T02:44:56.080Z,1019.51
2017-06-11T02:46:17.272Z,1019.5
2017-06-11T02:47:39.213Z,1019.47
2017-06-11T02:49:01.128Z,1019.51
2017-06-11T02:50:22.735Z,1019.49
2017-06-11T02:51:44.869Z,1019.47
2017-06-11T02:53:07.022Z,1019.47
2017-06-11T02:54:29.904Z,1019.48
2017-06-11T02:55:52.051Z,1019.51
2017-06-11T02:57:14.201Z,1019.49
2017-06-11T02:58:35.780Z,1019.45
2017-06-11T02:59:57.170Z,1019.43
2017-06-11T03:01:19.027Z,1019.5
2017-06-11T03:02:41.188Z,1019.45
2017-06-11T03:04:03.382Z,1019.44
2017-06-11T03:05:25.956Z,1019.42
2017-06-11T03:06:48.442Z,1019.45
2017-06-11T03:08:09.966Z,1019.44
2017-06-11T03:09:32.471Z,1019.43
2017-06-11T03:10:54.302Z,1019.42
2017-06-11T03:12:16.479Z,1019.4
2017-06-11T03:13:38.629Z,1019.42
2017-06-11T03:15:00.481Z,1019.39
2017-06-11T03:16:23.427Z,1019.4
2017-06-11T03:17:45.599Z,1019.43
2017-06-11T03:19:08.163Z,1019.35
2017-06-11T03:20:29.994Z,1019.33
2017-06-11T03:21:52.521Z,1019.35
2017-06-11T03:23:14.804Z,1019.33
2017-06-11T03:24:36.645Z,1019.31
2017-06-11T03:25:59.201Z,1019.32
2017-06-11T03:27:21.651Z,1019.31
2017-06-11T03:28:43.962Z,1019.29
2017-06-11T03:30:05.471Z,1019.26
2017-06-11T03:31:27.343Z,1019.29
2017-06-11T03:32:50.213Z,1019.27
2017-06-11T03:34:12.473Z,1019.23
2017-06-11T03:35:34.951Z,1019.27
2017-06-11T03:36:56.487Z,1019.26
2017-06-11T03:38:19.172Z,1019.2
2017-06-11T03:39:41.059Z,1019.22
2017-06-11T03:41:02.912Z,1019.22
2017-06-11T03:42:25.451Z,1019.22
2017-06-11T03:43:47.783Z,1019.22
2017-06-11T03:45:10.261Z,1019.23
2017-06-11T03:46:32.295Z,1019.25
2017-06-11T03:47:54.221Z,1019.23
2017-06-11T03:49:16.060Z,1019.25
2017-06-11T03:50:37.603Z,1019.27
2017-06-11T03:51:59.779Z,1019.27
2017-06-11T03:53:21.301Z,1019.3
2017-06-11T03:54:44.103Z,1019.29
2017-06-11T03:56:06.373Z,1019.32
2017-06-11T03:57:28.241Z,1019.29
2017-06-11T03:58:50.451Z,1019.27
2017-06-11T04:00:12.716Z,1019.25
2017-06-11T04:01:34.304Z,1019.3
2017-06-11T04:02:56.591Z,1019.31
2017-06-11T04:04:18.442Z,1019.31
2017-06-11T04:05:40.251Z,1019.28
2017-06-11T04:07:02.522Z,1019.27
2017-06-11T04:08:24.671Z,1019.31
2017-06-11T04:09:46.189Z,1019.25
2017-06-11T04:11:08.069Z,1019.27
2017-06-11T04:12:29.271Z,1019.28
2017-06-11T04:13:51.474Z,1019.25
2017-06-11T04:15:13.817Z,1019.23
2017-06-11T04:16:36.275Z,1019.26
2017-06-11T04:17:57.789Z,1019.24
2017-06-11T04:19:19.353Z,1019.22
2017-06-11T04:20:41.497Z,1019.25
2017-06-11T04:22:04.395Z,1019.22
2017-06-11T04:23:26.544Z,1019.22
2017-06-11T04:24:48.732Z,1019.24
2017-06-11T04:26:10.891Z,1019.23
2017-06-11T04:27:33.080Z,1019.24
2017-06-11T04:28:54.621Z,1019.27
2017-06-11T04:30:16.552Z,1019.22
2017-06-11T04:31:38.698Z,1019.24
2017-06-11T04:33:00.885Z,1019.25
2017-06-11T04:34:22.473Z,1019.21
2017-06-11T04:35:44.931Z,1019.2
2017-06-11T04:37:06.560Z,1019.23
2017-06-11T04:38:28.762Z,1019.22
2017-06-11T04:39:50.935Z,1019.26
2017-06-11T04:41:12.776Z,1019.24
2017-06-11T04:42:34.625Z,1019.28
2017-06-11T04:43:56.445Z,1019.28
2017-06-11T04:45:18.602Z,1019.27
2017-06-11T04:46:40.452Z,1019.27
2017-06-11T04:48:01.971Z,1019.31
2017-06-11T04:49:23.531Z,1019.29
2017-06-11T04:50:45.472Z,1019.33
2017-06-11T04:52:07.671Z,1019.44
2017-06-11T04:53:29.557Z,1019.44
2017-06-11T04:54:51.779Z,1019.48
2017-06-11T04:56:14.255Z,1019.52
2017-06-11T04:57:36.404Z,1019.58
2017-06-11T04:58:58.164Z,1019.6
2017-06-11T05:00:20.635Z,1019.56
2017-06-11T05:01:42.885Z,1019.61
2017-06-11T05:03:04.447Z,1019.65
2017-06-11T05:04:26.284Z,1019.76
2017-06-11T05:05:48.424Z,1019.73
2017-06-11T05:07:10.903Z,1019.78
2017-06-11T05:08:32.721Z,1019.83
2017-06-11T05:09:54.894Z,1019.79
2017-06-11T05:11:17.082Z,1019.77
2017-06-11T05:12:39.068Z,1019.85
2017-06-11T05:14:00.971Z,1019.87
2017-06-11T05:15:21.860Z,1019.86
2017-06-11T05:16:44.760Z,1019.83
2017-06-11T05:18:06.612Z,1019.86
2017-06-11T05:19:28.461Z,1019.81
2017-06-11T05:20:50.822Z,1019.9
2017-06-11T05:22:12.966Z,1019.86
2017-06-11T05:23:35.283Z,1019.84
2017-06-11T05:24:57.543Z,1019.85
2017-06-11T05:26:20.095Z,1019.85
2017-06-11T05:27:42.352Z,1019.77
2017-06-11T05:29:04.523Z,1019.82
2017-06-11T05:30:26.504Z,1019.8
2017-06-11T05:31:48.377Z,1019.83
2017-06-11T05:33:10.576Z,1019.82
2017-06-11T05:34:32.871Z,1019.83
2017-06-11T05:35:54.830Z,1019.87
2017-06-11T05:37:16.707Z,1019.82
2017-06-11T05:38:38.310Z,1019.8
2017-06-11T05:40:00.792Z,1019.84
2017-06-11T05:41:23.091Z,1019.81
2017-06-11T05:42:45.555Z,1019.78
2017-06-11T05:44:08.173Z,1019.78
2017-06-11T05:45:30.653Z,1019.82
2017-06-11T05:46:53.342Z,1019.84
2017-06-11T05:48:15.842Z,1019.88
2017-06-11T05:49:38.103Z,1019.85
2017-06-11T05:51:00.377Z,1019.84
2017-06-11T05:52:22.270Z,1019.84
2017-06-11T05:53:43.825Z,1019.75
2017-06-11T05:55:06.311Z,1019.87
2017-06-11T05:56:28.263Z,1019.93
2017-06-11T05:57:49.814Z,1019.93
2017-06-11T05:59:11.715Z,1019.94
2017-06-11T06:00:34.018Z,1019.9
2017-06-11T06:01:56.198Z,1019.96
2017-06-11T06:03:18.459Z,1019.96
2017-06-11T06:04:39.978Z,1019.98
2017-06-11T06:06:02.822Z,1019.96
2017-06-11T06:07:24.405Z,1019.92
2017-06-11T06:08:46.279Z,1019.85
2017-06-11T06:10:08.763Z,1019.93
2017-06-11T06:11:31.413Z,1019.95
2017-06-11T06:12:53.577Z,1019.96
2017-06-11T06:14:15.481Z,1019.93
2017-06-11T06:15:37.752Z,1019.99
2017-06-11T06:17:00.028Z,1020.02
2017-06-11T06:18:22.182Z,1020.06
2017-06-11T06:19:43.864Z,1020.04
2017-06-11T06:21:05.814Z,1020.04
2017-06-11T06:22:27.506Z,1020.01
2017-06-11T06:23:49.691Z,1020.09
2017-06-11T06:25:11.538Z,1020.07
2017-06-11T06:26:33.402Z,1020.08
2017-06-11T06:27:55.581Z,1020.06
2017-06-11T06:29:17.472Z,1020.12
2017-06-11T06:30:39.642Z,1020.11
2017-06-11T06:32:01.554Z,1020.07
2017-06-11T06:33:23.850Z,1020.11
2017-06-11T06:34:46.350Z,1020.05
2017-06-11T06:36:08.233Z,1020.05
2017-06-11T06:37:30.596Z,1020.1
2017-06-11T06:38:53.082Z,1020.07
2017-06-11T06:40:15.273Z,1020.09
2017-06-11T06:41:37.113Z,1020.08
2017-06-11T06:42:58.657Z,1020.05
2017-06-11T06:44:20.842Z,1020.12
2017-06-11T06:45:42.372Z,1020.07
2017-06-11T06:47:04.541Z,1020.1
2017-06-11T06:48:26.074Z,1020.14
2017-06-11T06:49:48.252Z,1020.12
2017-06-11T06:51:09.799Z,1020.11
2017-06-11T06:52:31.751Z,1019.87
2017-06-11T06:53:53.937Z,1019.98
2017-06-11T06:55:16.933Z,1020.03
2017-06-11T06:56:38.794Z,1019.97
2017-06-11T06:58:01.073Z,1019.98
2017-06-11T06:59:23.553Z,1020.01
2017-06-11T07:00:46.124Z,1020.08
2017-06-11T07:02:08.431Z,1020.03
2017-06-11T07:03:30.615Z,1020.02
2017-06-11T07:04:52.551Z,1020
2017-06-11T07:06:15.042Z,1020.01
2017-06-11T07:07:36.342Z,1020.01
2017-06-11T07:08:58.525Z,1020.04
2017-06-11T07:10:20.419Z,1020
2017-06-11T07:11:43.362Z,1020.03
2017-06-11T07:13:05.251Z,1019.97
2017-06-11T07:14:26.821Z,1019.96
2017-06-11T07:15:49.104Z,1019.98
2017-06-11T07:17:11.610Z,1019.96
2017-06-11T07:18:33.147Z,1019.99
2017-06-11T07:19:55.320Z,1020.02
2017-06-11T07:21:17.502Z,1019.98
2017-06-11T07:22:40.014Z,1019.98
2017-06-11T07:24:02.182Z,1019.98
2017-06-11T07:25:24.361Z,1019.95
2017-06-11T07:26:46.224Z,1019.94
2017-06-11T07:28:08.413Z,1019.89
2017-06-11T07:29:30.411Z,1019.91
2017-06-11T07:30:52.265Z,1019.9
2017-06-11T07:32:14.155Z,1019.91
2017-06-11T07:33:36.337Z,1019.84
2017-06-11T07:34:58.871Z,1019.88
2017-06-11T07:36:21.040Z,1019.87
2017-06-11T07:37:43.211Z,1019.87
2017-06-11T07:39:04.770Z,1019.9
2017-06-11T07:40:26.707Z,1019.93
2017-06-11T07:41:49.219Z,1019.83
2017-06-11T07:43:11.721Z,1019.81
2017-06-11T07:44:34.001Z,1019.79
2017-06-11T07:45:55.851Z,1019.79
2017-06-11T07:47:18.006Z,1019.76
2017-06-11T07:48:39.548Z,1019.69
2017-06-11T07:50:02.032Z,1019.69
2017-06-11T07:51:24.203Z,1019.76
2017-06-11T07:52:46.785Z,1019.74
2017-06-11T07:54:08.963Z,1019.7
2017-06-11T07:55:31.510Z,1019.7
2017-06-11T07:56:53.048Z,1019.63
2017-06-11T07:58:14.584Z,1019.64
2017-06-11T07:59:36.752Z,1019.7
2017-06-11T08:00:58.922Z,1019.68
2017-06-11T08:02:20.151Z,1019.66
2017-06-11T08:03:41.385Z,1019.62
2017-06-11T08:05:02.932Z,1019.69
2017-06-11T08:06:25.442Z,1019.74
2017-06-11T08:07:48.030Z,1019.65
2017-06-11T08:09:10.020Z,1019.57
2017-06-11T08:10:31.868Z,1019.46
2017-06-11T08:11:53.384Z,1019.44
2017-06-11T08:13:14.920Z,1019.37
2017-06-11T08:14:36.794Z,1019.36
2017-06-11T08:15:59.270Z,1019.32
2017-06-11T08:17:21.232Z,1019.25
2017-06-11T08:18:42.761Z,1019.23
2017-06-11T08:20:04.934Z,1019.15
2017-06-11T08:21:26.783Z,1019.13
2017-06-11T08:22:48.791Z,1019.09
2017-06-11T08:24:10.979Z,1019.12
2017-06-11T08:25:32.931Z,1019.1
2017-06-11T08:26:54.469Z,1019.16
2017-06-11T08:28:16.661Z,1019.13
2017-06-11T08:29:38.528Z,1019.12
2017-06-11T08:31:00.375Z,1019.05
2017-06-11T08:32:22.229Z,1019.06
2017-06-11T08:33:44.326Z,1019.08
2017-06-11T08:35:06.510Z,1019.05
2017-06-11T08:36:28.815Z,1019.04
2017-06-11T08:37:51.485Z,1019.09
2017-06-11T08:39:13.786Z,1019.09
2017-06-11T08:40:35.961Z,1019.06
2017-06-11T08:41:58.122Z,1019.07
2017-06-11T08:43:20.292Z,1019.05
2017-06-11T08:44:42.122Z,1019.08
2017-06-11T08:46:03.994Z,1019.05
2017-06-11T08:47:26.143Z,1019.06
2017-06-11T08:48:48.674Z,1019.03
2017-06-11T08:50:11.218Z,1019.03
2017-06-11T08:51:33.821Z,1019.09
2017-06-11T08:52:55.994Z,1019.1
2017-06-11T08:54:17.984Z,1019.1
2017-06-11T08:55:40.201Z,1019.09
2017-06-11T08:57:02.073Z,1019.04
2017-06-11T08:58:24.242Z,1019.06
2017-06-11T08:59:46.345Z,1019.1
2017-06-11T09:01:08.308Z,1019.08
2017-06-11T09:02:30.472Z,1019.08
2017-06-11T09:03:52.320Z,1019.05
2017-06-11T09:05:14.585Z,1019.09
2017-06-11T09:06:36.636Z,1018.99
2017-06-11T09:07:59.129Z,1019.01
2017-06-11T09:09:21.694Z,1018.99
2017-06-11T09:10:43.931Z,1018.99
2017-06-11T09:12:06.414Z,1018.92
2017-06-11T09:13:28.263Z,1018.83
2017-06-11T09:14:50.431Z,1018.83
2017-06-11T09:16:12.597Z,1018.75
2017-06-11T09:17:34.785Z,1018.77
2017-06-11T09:18:57.286Z,1018.81
2017-06-11T09:20:19.483Z,1018.83
2017-06-11T09:21:41.674Z,1018.81
2017-06-11T09:23:03.551Z,1018.82
2017-06-11T09:24:25.785Z,1018.86
2017-06-11T09:25:48.271Z,1018.86
2017-06-11T09:27:10.467Z,1018.88
2017-06-11T09:28:32.952Z,1018.84
2017-06-11T09:29:55.266Z,1018.84
2017-06-11T09:31:17.758Z,1018.81
2017-06-11T09:32:39.974Z,1018.77
2017-06-11T09:34:01.820Z,1018.73
2017-06-11T09:35:23.661Z,1018.74
2017-06-11T09:36:46.178Z,1018.83
2017-06-11T09:38:08.375Z,1018.83
2017-06-11T09:39:30.539Z,1018.77
2017-06-11T09:40:53.093Z,1018.73
2017-06-11T09:42:14.991Z,1018.74
2017-06-11T09:43:37.181Z,1018.78
2017-06-11T09:44:59.402Z,1018.74
2017-06-11T09:46:21.341Z,1018.7
2017-06-11T09:47:43.221Z,1018.75
2017-06-11T09:49:05.691Z,1018.73
2017-06-11T09:50:27.841Z,1018.79
2017-06-11T09:51:50.031Z,1018.8
2017-06-11T09:53:12.208Z,1018.82
2017-06-11T09:54:34.698Z,1018.82
2017-06-11T09:55:56.854Z,1018.85
2017-06-11T09:57:19.020Z,1018.79
2017-06-11T09:58:41.180Z,1018.79
2017-06-11T10:00:03.038Z,1018.72
2017-06-11T10:01:24.574Z,1018.68
2017-06-11T10:02:46.413Z,1018.63
2017-06-11T10:04:08.591Z,1018.68
2017-06-11T10:05:30.822Z,1018.62
2017-06-11T10:06:53.313Z,1018.64
2017-06-11T10:08:15.819Z,1018.6
2017-06-11T10:09:38.342Z,1018.56
2017-06-11T10:11:00.541Z,1018.55
2017-06-11T10:12:21.759Z,1018.52
2017-06-11T10:13:44.050Z,1018.52
2017-06-11T10:15:06.288Z,1018.53
2017-06-11T10:16:27.586Z,1018.5
2017-06-11T10:17:49.461Z,1018.51
2017-06-11T10:19:11.631Z,1018.46
2017-06-11T10:20:34.141Z,1018.4
2017-06-11T10:21:56.601Z,1018.53
2017-06-11T10:23:18.478Z,1018.44
2017-06-11T10:24:40.339Z,1018.44
2017-06-11T10:26:02.203Z,1018.46
2017-06-11T10:27:24.699Z,1018.44
2017-06-11T10:28:47.266Z,1018.33
2017-06-11T10:30:09.970Z,1018.29
2017-06-11T10:31:32.492Z,1018.33
2017-06-11T10:32:54.993Z,1018.37
2017-06-11T10:34:16.856Z,1018.36
2017-06-11T10:35:39.559Z,1018.34
2017-06-11T10:37:02.064Z,1018.3
2017-06-11T10:38:23.904Z,1018.28
2017-06-11T10:39:46.088Z,1018.23
2017-06-11T10:41:07.936Z,1018.22
2017-06-11T10:42:30.517Z,1018.16
2017-06-11T10:43:52.784Z,1018.18
2017-06-11T10:45:15.458Z,1018.12
2017-06-11T10:46:37.635Z,1018.08
2017-06-11T10:48:00.251Z,1018.05
2017-06-11T10:49:22.444Z,1017.99
2017-06-11T10:50:45.091Z,1018.01
2017-06-11T10:52:06.775Z,1018.03
2017-06-11T10:53:29.269Z,1018.04
2017-06-11T10:54:51.456Z,1018.01
2017-06-11T10:56:13.702Z,1018.02
2017-06-11T10:57:36.293Z,1017.99
2017-06-11T10:58:58.774Z,1018.03
2017-06-11T11:00:21.093Z,1017.98
2017-06-11T11:01:43.083Z,1017.93
2017-06-11T11:03:04.976Z,1017.91
2017-06-11T11:04:27.154Z,1017.9
2017-06-11T11:05:49.352Z,1017.86
2017-06-11T11:07:11.536Z,1017.9
2017-06-11T11:08:33.505Z,1017.86
2017-06-11T11:09:55.990Z,1017.86
2017-06-11T11:11:18.316Z,1017.87
2017-06-11T11:12:40.510Z,1017.79
2017-06-11T11:14:02.758Z,1017.76
2017-06-11T11:15:25.053Z,1017.75
2017-06-11T11:16:46.906Z,1017.75
2017-06-11T11:18:08.837Z,1017.65
2017-06-11T11:19:31.061Z,1017.62
2017-06-11T11:20:53.392Z,1017.5
2017-06-11T11:22:16.551Z,1017.46
2017-06-11T11:23:39.052Z,1017.47
2017-06-11T11:25:01.541Z,1017.51
2017-06-11T11:26:24.250Z,1017.5
2017-06-11T11:27:46.895Z,1017.47
2017-06-11T11:29:09.474Z,1017.41
2017-06-11T11:30:32.114Z,1017.42
2017-06-11T11:31:54.417Z,1017.39
2017-06-11T11:33:16.596Z,1017.36
2017-06-11T11:34:38.794Z,1017.29
2017-06-11T11:36:00.953Z,1017.34
2017-06-11T11:37:23.130Z,1017.28
2017-06-11T11:38:45.662Z,1017.19
2017-06-11T11:40:07.891Z,1017.18
2017-06-11T11:41:30.468Z,1017.25
2017-06-11T11:42:52.318Z,1017.26
2017-06-11T11:44:14.169Z,1017.15
2017-06-11T11:45:36.044Z,1017.14
2017-06-11T11:46:57.934Z,1017.15
2017-06-11T11:48:20.124Z,1017.11
2017-06-11T11:49:42.315Z,1017.03
2017-06-11T11:51:04.809Z,1017.01
2017-06-11T11:52:26.938Z,1017.07
2017-06-11T11:53:49.412Z,1017.11
2017-06-11T11:55:11.909Z,1017.12
2017-06-11T11:56:34.400Z,1017.03
2017-06-11T11:57:56.882Z,1016.91
2017-06-11T11:59:18.760Z,1016.92
2017-06-11T12:00:41.355Z,1016.91
2017-06-11T12:02:03.223Z,1016.92
2017-06-11T12:03:25.820Z,1016.86
2017-06-11T12:04:47.978Z,1016.87
2017-06-11T12:06:10.153Z,1016.8
2017-06-11T12:07:32.055Z,1016.71
2017-06-11T12:08:54.541Z,1016.73
2017-06-11T12:10:16.736Z,1016.76
2017-06-11T12:11:39.076Z,1016.73
2017-06-11T12:13:01.589Z,1016.69
2017-06-11T12:14:24.166Z,1016.63
2017-06-11T12:15:46.060Z,1016.67
2017-06-11T12:17:08.687Z,1016.65
2017-06-11T12:18:30.854Z,1016.64
2017-06-11T12:19:53.350Z,1016.65
2017-06-11T12:21:15.523Z,1016.62
2017-06-11T12:22:37.711Z,1016.58
2017-06-11T12:23:59.974Z,1016.58
2017-06-11T12:25:22.192Z,1016.6
2017-06-11T12:26:44.384Z,1016.6
2017-06-11T12:28:06.667Z,1016.56
2017-06-11T12:29:28.921Z,1016.57
2017-06-11T12:30:51.115Z,1016.51
2017-06-11T12:32:13.418Z,1016.52
2017-06-11T12:33:35.695Z,1016.54
2017-06-11T12:34:58.323Z,1016.47
2017-06-11T12:36:20.501Z,1016.42
2017-06-11T12:37:42.171Z,1016.45
2017-06-11T12:39:04.014Z,1016.41
2017-06-11T12:40:26.332Z,1016.34
2017-06-11T12:41:48.839Z,1016.35
2017-06-11T12:43:11.414Z,1016.32
2017-06-11T12:44:33.701Z,1016.32
2017-06-11T12:45:56.234Z,1016.32
2017-06-11T12:47:18.805Z,1016.24
2017-06-11T12:48:40.971Z,1016.2
2017-06-11T12:50:03.303Z,1016.16
2017-06-11T12:51:25.470Z,1016.16
2017-06-11T12:52:47.633Z,1016.16
2017-06-11T12:54:09.149Z,1016.17
2017-06-11T12:55:31.646Z,1016.13
2017-06-11T12:56:54.510Z,1016.09
2017-06-11T12:58:16.432Z,1016.05
2017-06-11T12:59:39.041Z,1016.04
2017-06-11T13:01:01.201Z,1016.08
2017-06-11T13:02:23.673Z,1016.12
2017-06-11T13:03:46.212Z,1016.09
2017-06-11T13:05:08.468Z,1016.05
2017-06-11T13:06:30.686Z,1015.97
2017-06-11T13:07:52.967Z,1016.04
2017-06-11T13:09:14.841Z,1015.93
2017-06-11T13:10:37.363Z,1015.86
2017-06-11T13:11:59.561Z,1015.83
2017-06-11T13:13:21.742Z,1015.82
2017-06-11T13:14:44.002Z,1015.89
2017-06-11T13:16:06.482Z,1015.9
2017-06-11T13:17:28.648Z,1015.93
2017-06-11T13:18:51.160Z,1015.83
2017-06-11T13:20:13.054Z,1015.82
2017-06-11T13:21:35.558Z,1015.91
2017-06-11T13:22:58.052Z,1015.89
2017-06-11T13:24:20.458Z,1015.91
2017-06-11T13:25:42.634Z,1015.9
2017-06-11T13:27:04.484Z,1015.86
2017-06-11T13:28:26.683Z,1015.76
2017-06-11T13:29:48.555Z,1015.78
2017-06-11T13:31:11.048Z,1015.75
2017-06-11T13:32:33.672Z,1015.69
2017-06-11T13:33:55.952Z,1015.69
2017-06-11T13:35:18.160Z,1015.6
2017-06-11T13:36:40.674Z,1015.61
2017-06-11T13:38:03.200Z,1015.58
2017-06-11T13:39:25.383Z,1015.5
2017-06-11T13:40:47.561Z,1015.52
2017-06-11T13:42:09.433Z,1015.57
2017-06-11T13:43:31.911Z,1015.6
2017-06-11T13:44:54.131Z,1015.55
2017-06-11T13:46:15.982Z,1015.55
2017-06-11T13:47:37.980Z,1015.52
2017-06-11T13:49:00.147Z,1015.44
2017-06-11T13:50:22.640Z,1015.44
2017-06-11T13:51:45.202Z,1015.45
2017-06-11T13:53:07.681Z,1015.43
2017-06-11T13:54:30.001Z,1015.37
2017-06-11T13:55:52.249Z,1015.36
2017-06-11T13:57:14.559Z,1015.35
2017-06-11T13:58:36.110Z,1015.33
2017-06-11T13:59:58.008Z,1015.3
2017-06-11T14:01:20.644Z,1015.23
2017-06-11T14:02:43.321Z,1015.2
2017-06-11T14:04:05.954Z,1015.18
2017-06-11T14:05:28.436Z,1015.13
2017-06-11T14:06:49.993Z,1015.13
2017-06-11T14:08:12.301Z,1015.1
2017-06-11T14:09:34.484Z,1015.04
2017-06-11T14:10:56.972Z,1014.99
2017-06-11T14:12:19.587Z,1015.06
2017-06-11T14:13:41.446Z,1014.96
2017-06-11T14:15:03.949Z,1014.9
2017-06-11T14:16:26.472Z,1014.89
2017-06-11T14:17:48.991Z,1014.94
2017-06-11T14:19:11.495Z,1014.99
2017-06-11T14:20:34.001Z,1014.93
2017-06-11T14:21:56.491Z,1014.95
2017-06-11T14:23:19.050Z,1014.89
2017-06-11T14:24:41.554Z,1014.88
2017-06-11T14:26:04.134Z,1014.88
2017-06-11T14:27:26.001Z,1014.85
2017-06-11T14:28:47.910Z,1014.85
2017-06-11T14:30:10.443Z,1014.83
2017-06-11T14:31:32.962Z,1014.75
2017-06-11T14:32:55.458Z,1014.74
2017-06-11T14:34:18.156Z,1014.74
2017-06-11T14:35:40.630Z,1014.71
2017-06-11T14:37:02.258Z,1014.65
2017-06-11T14:38:24.501Z,1014.72
2017-06-11T14:39:46.988Z,1014.7
2017-06-11T14:41:09.227Z,1014.7
2017-06-11T14:42:31.420Z,1014.71
2017-06-11T14:43:53.001Z,1014.72
2017-06-11T14:45:15.730Z,1014.69
2017-06-11T14:46:38.331Z,1014.65
2017-06-11T14:48:00.188Z,1014.67
2017-06-11T14:49:22.341Z,1014.66
2017-06-11T14:50:44.948Z,1014.64
2017-06-11T14:52:07.139Z,1014.61
2017-06-11T14:53:29.371Z,1014.58
2017-06-11T14:54:51.863Z,1014.59
2017-06-11T14:56:14.402Z,1014.5
2017-06-11T14:57:36.556Z,1014.49
2017-06-11T14:58:58.751Z,1014.45
2017-06-11T15:00:21.012Z,1014.45
2017-06-11T15:01:43.211Z,1014.44
2017-06-11T15:03:05.704Z,1014.43
2017-06-11T15:04:27.556Z,1014.4
2017-06-11T15:05:50.173Z,1014.4
2017-06-11T15:07:12.700Z,1014.36
2017-06-11T15:08:34.260Z,1014.38
2017-06-11T15:09:56.758Z,1014.34
2017-06-11T15:11:18.304Z,1014.29
2017-06-11T15:12:40.821Z,1014.31
2017-06-11T15:14:03.091Z,1014.29
2017-06-11T15:15:25.591Z,1014.32
2017-06-11T15:16:48.091Z,1014.29
2017-06-11T15:18:10.296Z,1014.26
2017-06-11T15:19:32.168Z,1014.26
2017-06-11T15:20:54.326Z,1014.26
2017-06-11T15:22:16.660Z,1014.25
2017-06-11T15:23:38.821Z,1014.25
2017-06-11T15:25:01.461Z,1014.19
2017-06-11T15:26:23.316Z,1014.21
2017-06-11T15:27:44.993Z,1014.16
2017-06-11T15:29:06.630Z,1014.17
2017-06-11T15:30:28.502Z,1014.12
2017-06-11T15:31:51.001Z,1014.1
2017-06-11T15:33:13.551Z,1014.1
2017-06-11T15:34:35.701Z,1014.1
2017-06-11T15:35:58.101Z,1014.07
2017-06-11T15:37:20.021Z,1014.08
2017-06-11T15:38:42.183Z,1014.05
2017-06-11T15:40:04.401Z,1014.09
2017-06-11T15:41:26.960Z,1014.01
2017-06-11T15:42:49.457Z,1014
2017-06-11T15:44:11.648Z,1013.97
2017-06-11T15:45:34.161Z,1013.92
2017-06-11T15:46:57.162Z,1014
2017-06-11T15:48:19.375Z,1014
2017-06-11T15:49:41.299Z,1013.93
2017-06-11T15:51:03.841Z,1013.85
2017-06-11T15:52:26.003Z,1013.82
2017-06-11T15:53:48.180Z,1013.9
2017-06-11T15:55:10.353Z,1013.87
2017-06-11T15:56:32.612Z,1013.84
2017-06-11T15:57:55.271Z,1013.8
2017-06-11T15:59:16.494Z,1013.76
2017-06-11T16:00:38.671Z,1013.74
2017-06-11T16:02:01.161Z,1013.71
2017-06-11T16:03:24.042Z,1013.71
2017-06-11T16:04:46.525Z,1013.72
2017-06-11T16:06:08.688Z,1013.7
2017-06-11T16:07:31.181Z,1013.67
2017-06-11T16:08:53.442Z,1013.64
2017-06-11T16:10:15.633Z,1013.66
2017-06-11T16:11:37.821Z,1013.73
2017-06-11T16:12:59.690Z,1013.63
2017-06-11T16:14:22.497Z,1013.69
2017-06-11T16:15:45.032Z,1013.69
2017-06-11T16:17:07.330Z,1013.7
2017-06-11T16:18:29.548Z,1013.68
2017-06-11T16:19:52.091Z,1013.69
2017-06-11T16:21:14.382Z,1013.73
2017-06-11T16:22:36.886Z,1013.81
2017-06-11T16:23:58.750Z,1014
2017-06-11T16:25:20.927Z,1014.01
2017-06-11T16:26:43.107Z,1014.08
2017-06-11T16:28:05.603Z,1014.15
2017-06-11T16:29:27.891Z,1014.23
2017-06-11T16:30:50.060Z,1014.18
2017-06-11T16:32:12.073Z,1014.15
2017-06-11T16:33:34.765Z,1014.13
2017-06-11T16:34:56.995Z,1014.15
2017-06-11T16:36:19.181Z,1014.23
2017-06-11T16:37:42.333Z,1014.19